sensor_id;sensor_type;location;lat;lon;timestamp;pressure;altitude;pressure_sealevel;temperature;humidity
62725;BME280;49026;52.600;4.694;2022-12-18T00:02:05;102772.13;;;-3.84;96.21
62725;BME280;49026;52.600;4.694;2022-12-18T00:04:31;102777.41;;;-3.81;96.37
62725;BME280;49026;52.600;4.694;2022-12-18T00:06:56;102778.97;;;-3.85;96.20
62725;BME280;49026;52.600;4.694;2022-12-18T00:09:24;102782.47;;;-3.83;96.05
62725;BME280;49026;52.600;4.694;2022-12-18T00:11:50;102784.09;;;-3.85;96.24
62725;BME280;49026;52.600;4.694;2022-12-18T00:14:15;102783.31;;;-3.84;96.15
62725;BME280;49026;52.600;4.694;2022-12-18T00:16:45;102787.63;;;-3.83;95.95
62725;BME280;49026;52.600;4.694;2022-12-18T00:19:11;102778.97;;;-3.85;96.04
62725;BME280;49026;52.600;4.694;2022-12-18T00:21:39;102779.91;;;-3.83;95.74
62725;BME280;49026;52.600;4.694;2022-12-18T00:24:05;102788.59;;;-3.81;96.05
62725;BME280;49026;52.600;4.694;2022-12-18T00:26:32;102798.78;;;-3.82;95.79
62725;BME280;49026;52.600;4.694;2022-12-18T00:29:04;102801.44;;;-3.81;95.93
62725;BME280;49026;52.600;4.694;2022-12-18T00:31:33;102791.16;;;-3.81;95.61
62725;BME280;49026;52.600;4.694;2022-12-18T00:33:59;102785.88;;;-3.84;95.21
62725;BME280;49026;52.600;4.694;2022-12-18T00:36:29;102792.66;;;-3.84;94.94
62725;BME280;49026;52.600;4.694;2022-12-18T00:38:58;102783.78;;;-3.91;95.30
62725;BME280;49026;52.600;4.694;2022-12-18T00:41:25;102769.19;;;-3.92;95.13
62725;BME280;49026;52.600;4.694;2022-12-18T00:44:14;102769.81;;;-3.96;95.39
62725;BME280;49026;52.600;4.694;2022-12-18T00:46:42;102767.19;;;-3.98;95.19
62725;BME280;49026;52.600;4.694;2022-12-18T00:49:10;102760.38;;;-3.97;95.67
62725;BME280;49026;52.600;4.694;2022-12-18T00:51:35;102773.22;;;-3.97;95.73
62725;BME280;49026;52.600;4.694;2022-12-18T00:54:01;102761.75;;;-4.04;95.30
62725;BME280;49026;52.600;4.694;2022-12-18T00:56:29;102777.25;;;-4.02;95.33
62725;BME280;49026;52.600;4.694;2022-12-18T00:58:57;102776.56;;;-3.98;95.62
62725;BME280;49026;52.600;4.694;2022-12-18T01:01:22;102773.22;;;-3.97;95.65
62725;BME280;49026;52.600;4.694;2022-12-18T01:03:48;102771.69;;;-3.94;95.85
62725;BME280;49026;52.600;4.694;2022-12-18T01:06:14;102775.13;;;-3.93;95.55
62725;BME280;49026;52.600;4.694;2022-12-18T01:08:40;102775.13;;;-3.93;95.72
62725;BME280;49026;52.600;4.694;2022-12-18T01:11:15;102792.22;;;-3.94;95.32
62725;BME280;49026;52.600;4.694;2022-12-18T01:13:41;102780.19;;;-3.95;95.48
62725;BME280;49026;52.600;4.694;2022-12-18T01:16:07;102775.03;;;-3.95;95.29
62725;BME280;49026;52.600;4.694;2022-12-18T01:18:34;102787.72;;;-3.98;95.35
62725;BME280;49026;52.600;4.694;2022-12-18T01:21:06;102795.50;;;-3.96;95.42
62725;BME280;49026;52.600;4.694;2022-12-18T01:23:31;102796.00;;;-4.03;95.02
62725;BME280;49026;52.600;4.694;2022-12-18T01:25:57;102794.88;;;-4.08;94.45
62725;BME280;49026;52.600;4.694;2022-12-18T01:28:23;102799.94;;;-4.10;94.82
62725;BME280;49026;52.600;4.694;2022-12-18T01:30:50;102793.84;;;-4.12;94.99
62725;BME280;49026;52.600;4.694;2022-12-18T01:33:21;102797.28;;;-4.12;94.85
62725;BME280;49026;52.600;4.694;2022-12-18T01:35:47;102800.75;;;-4.11;95.10
62725;BME280;49026;52.600;4.694;2022-12-18T01:38:14;102796.50;;;-4.11;95.25
62725;BME280;49026;52.600;4.694;2022-12-18T01:40:47;102794.88;;;-4.08;95.60
62725;BME280;49026;52.600;4.694;2022-12-18T01:43:12;102796.34;;;-4.14;95.18
62725;BME280;49026;52.600;4.694;2022-12-18T01:45:38;102803.97;;;-4.15;95.06
62725;BME280;49026;52.600;4.694;2022-12-18T01:48:07;102807.97;;;-4.20;95.07
62725;BME280;49026;52.600;4.694;2022-12-18T01:50:38;102808.75;;;-4.21;95.39
62725;BME280;49026;52.600;4.694;2022-12-18T01:53:11;102812.28;;;-4.19;95.31
62725;BME280;49026;52.600;4.694;2022-12-18T01:55:51;102821.44;;;-4.24;95.14
62725;BME280;49026;52.600;4.694;2022-12-18T01:58:27;102828.84;;;-4.31;94.45
62725;BME280;49026;52.600;4.694;2022-12-18T02:00:57;102830.19;;;-4.37;94.44
62725;BME280;49026;52.600;4.694;2022-12-18T02:03:25;102823.94;;;-4.42;94.18
62725;BME280;49026;52.600;4.694;2022-12-18T02:06:04;102828.25;;;-4.41;95.07
62725;BME280;49026;52.600;4.694;2022-12-18T02:19:06;102829.94;;;-4.42;94.85
62725;BME280;49026;52.600;4.694;2022-12-18T02:21:52;102818.06;;;-4.40;95.54
62725;BME280;49026;52.600;4.694;2022-12-18T02:26:50;102812.47;;;-4.49;94.97
62725;BME280;49026;52.600;4.694;2022-12-18T02:29:22;102802.03;;;-4.52;95.34
62725;BME280;49026;52.600;4.694;2022-12-18T02:31:58;102801.13;;;-4.53;95.65
62725;BME280;49026;52.600;4.694;2022-12-18T02:34:28;102800.16;;;-4.55;95.35
62725;BME280;49026;52.600;4.694;2022-12-18T02:36:57;102794.56;;;-4.64;95.01
62725;BME280;49026;52.600;4.694;2022-12-18T02:39:28;102798.72;;;-4.66;95.19
62725;BME280;49026;52.600;4.694;2022-12-18T02:41:54;102801.22;;;-4.68;95.73
62725;BME280;49026;52.600;4.694;2022-12-18T02:44:20;102799.63;;;-4.66;96.03
62725;BME280;49026;52.600;4.694;2022-12-18T02:46:49;102791.19;;;-4.63;96.27
62725;BME280;49026;52.600;4.694;2022-12-18T02:49:30;102782.63;;;-4.63;96.30
62725;BME280;49026;52.600;4.694;2022-12-18T02:52:11;102793.13;;;-4.59;96.31
62725;BME280;49026;52.600;4.694;2022-12-18T02:57:40;102794.78;;;-4.59;96.16
62725;BME280;49026;52.600;4.694;2022-12-18T03:00:16;102794.88;;;-4.58;96.35
62725;BME280;49026;52.600;4.694;2022-12-18T03:08:10;102784.84;;;-4.53;96.36
62725;BME280;49026;52.600;4.694;2022-12-18T03:10:45;102773.38;;;-4.60;96.16
62725;BME280;49026;52.600;4.694;2022-12-18T03:13:20;102778.53;;;-4.60;96.48
62725;BME280;49026;52.600;4.694;2022-12-18T03:15:50;102783.47;;;-4.63;96.40
62725;BME280;49026;52.600;4.694;2022-12-18T03:18:23;102771.66;;;-4.61;96.16
62725;BME280;49026;52.600;4.694;2022-12-18T03:20:51;102773.38;;;-4.60;96.49
62725;BME280;49026;52.600;4.694;2022-12-18T03:23:22;102763.28;;;-4.57;96.56
62725;BME280;49026;52.600;4.694;2022-12-18T03:25:51;102763.38;;;-4.55;96.42
62725;BME280;49026;52.600;4.694;2022-12-18T03:28:21;102767.56;;;-4.57;96.56
62725;BME280;49026;52.600;4.694;2022-12-18T03:30:52;102773.56;;;-4.57;96.37
62725;BME280;49026;52.600;4.694;2022-12-18T03:33:28;102775.16;;;-4.59;96.54
62725;BME280;49026;52.600;4.694;2022-12-18T03:35:55;102775.00;;;-4.62;96.42
62725;BME280;49026;52.600;4.694;2022-12-18T03:38:23;102773.22;;;-4.63;96.21
62725;BME280;49026;52.600;4.694;2022-12-18T03:48:52;102757.81;;;-4.63;96.65
62725;BME280;49026;52.600;4.694;2022-12-18T03:54:04;102761.31;;;-4.62;96.68
62725;BME280;49026;52.600;4.694;2022-12-18T03:56:36;102746.78;;;-4.62;96.70
62725;BME280;49026;52.600;4.694;2022-12-18T03:59:04;102744.91;;;-4.65;96.44
62725;BME280;49026;52.600;4.694;2022-12-18T04:01:34;102745.66;;;-4.67;96.31
62725;BME280;49026;52.600;4.694;2022-12-18T04:04:00;102747.88;;;-4.73;96.41
62725;BME280;49026;52.600;4.694;2022-12-18T04:06:28;102751.28;;;-4.74;96.07
62725;BME280;49026;52.600;4.694;2022-12-18T04:08:53;102738.81;;;-4.83;95.85
62725;BME280;49026;52.600;4.694;2022-12-18T04:11:19;102733.69;;;-4.83;96.15
62725;BME280;49026;52.600;4.694;2022-12-18T04:13:44;102731.94;;;-4.84;96.13
62725;BME280;49026;52.600;4.694;2022-12-18T04:16:10;102732.66;;;-4.87;96.04
62725;BME280;49026;52.600;4.694;2022-12-18T04:18:38;102741.00;;;-4.91;96.24
62725;BME280;49026;52.600;4.694;2022-12-18T04:21:03;102739.22;;;-4.92;96.13
62725;BME280;49026;52.600;4.694;2022-12-18T04:23:28;102752.69;;;-4.96;96.06
62725;BME280;49026;52.600;4.694;2022-12-18T04:25:54;102756.13;;;-4.95;96.35
62725;BME280;49026;52.600;4.694;2022-12-18T04:28:19;102757.94;;;-4.93;96.44
62725;BME280;49026;52.600;4.694;2022-12-18T04:30:45;102759.91;;;-4.89;96.57
62725;BME280;49026;52.600;4.694;2022-12-18T04:33:16;102759.41;;;-4.81;96.89
62725;BME280;49026;52.600;4.694;2022-12-18T04:35:41;102764.63;;;-4.80;96.56
62725;BME280;49026;52.600;4.694;2022-12-18T04:38:07;102761.91;;;-4.83;96.30
62725;BME280;49026;52.600;4.694;2022-12-18T04:40:37;102778.88;;;-4.85;96.57
62725;BME280;49026;52.600;4.694;2022-12-18T04:43:03;102770.94;;;-4.90;96.32
62725;BME280;49026;52.600;4.694;2022-12-18T04:45:29;102773.34;;;-4.93;96.22
62725;BME280;49026;52.600;4.694;2022-12-18T04:47:57;102778.41;;;-4.94;96.38
62725;BME280;49026;52.600;4.694;2022-12-18T04:50:22;102787.59;;;-4.98;96.08
62725;BME280;49026;52.600;4.694;2022-12-18T04:52:53;102788.41;;;-4.99;96.25
62725;BME280;49026;52.600;4.694;2022-12-18T04:55:19;102791.75;;;-5.00;96.17
62725;BME280;49026;52.600;4.694;2022-12-18T04:57:44;102787.50;;;-4.99;96.32
62725;BME280;49026;52.600;4.694;2022-12-18T05:00:10;102784.78;;;-5.03;96.00
62725;BME280;49026;52.600;4.694;2022-12-18T05:02:35;102790.72;;;-5.04;95.98
62725;BME280;49026;52.600;4.694;2022-12-18T05:05:01;102784.63;;;-5.06;96.00
62725;BME280;49026;52.600;4.694;2022-12-18T05:07:26;102792.22;;;-5.07;96.00
62725;BME280;49026;52.600;4.694;2022-12-18T05:09:54;102791.25;;;-5.09;95.98
62725;BME280;49026;52.600;4.694;2022-12-18T05:12:21;102790.03;;;-5.16;95.35
62725;BME280;49026;52.600;4.694;2022-12-18T05:14:47;102802.50;;;-5.22;95.57
62725;BME280;49026;52.600;4.694;2022-12-18T05:17:12;102797.13;;;-5.27;95.45
62725;BME280;49026;52.600;4.694;2022-12-18T05:19:37;102791.50;;;-5.36;95.32
62725;BME280;49026;52.600;4.694;2022-12-18T05:22:08;102794.56;;;-5.42;95.62
62725;BME280;49026;52.600;4.694;2022-12-18T05:24:33;102790.16;;;-5.44;95.27
62725;BME280;49026;52.600;4.694;2022-12-18T05:27:02;102797.75;;;-5.46;95.56
62725;BME280;49026;52.600;4.694;2022-12-18T05:29:30;102792.00;;;-5.56;95.04
62725;BME280;49026;52.600;4.694;2022-12-18T05:31:55;102784.78;;;-5.64;94.74
62725;BME280;49026;52.600;4.694;2022-12-18T05:34:21;102786.88;;;-5.71;94.77
62725;BME280;49026;52.600;4.694;2022-12-18T05:36:46;102780.53;;;-5.78;94.83
62725;BME280;49026;52.600;4.694;2022-12-18T05:39:12;102787.97;;;-5.83;95.00
62725;BME280;49026;52.600;4.694;2022-12-18T05:41:37;102782.56;;;-5.87;95.29
62725;BME280;49026;52.600;4.694;2022-12-18T05:44:02;102779.66;;;-5.93;95.39
62725;BME280;49026;52.600;4.694;2022-12-18T05:46:35;102772.63;;;-5.98;95.84
62725;BME280;49026;52.600;4.694;2022-12-18T05:49:01;102772.44;;;-6.01;95.94
62725;BME280;49026;52.600;4.694;2022-12-18T05:51:27;102779.34;;;-6.00;96.38
62725;BME280;49026;52.600;4.694;2022-12-18T05:53:52;102774.91;;;-6.02;96.10
62725;BME280;49026;52.600;4.694;2022-12-18T05:56:21;102770.84;;;-5.99;96.80
62725;BME280;49026;52.600;4.694;2022-12-18T05:58:50;102771.00;;;-5.96;96.97
62725;BME280;49026;52.600;4.694;2022-12-18T06:01:18;102766.59;;;-5.98;97.55
62725;BME280;49026;52.600;4.694;2022-12-18T06:03:45;102768.72;;;-5.91;97.14
62725;BME280;49026;52.600;4.694;2022-12-18T06:06:19;102772.34;;;-5.87;97.54
62725;BME280;49026;52.600;4.694;2022-12-18T06:08:44;102768.91;;;-5.88;97.21
62725;BME280;49026;52.600;4.694;2022-12-18T06:11:10;102767.03;;;-5.90;97.18
62725;BME280;49026;52.600;4.694;2022-12-18T06:13:36;102768.63;;;-5.92;97.34
62725;BME280;49026;52.600;4.694;2022-12-18T06:16:03;102760.06;;;-5.93;97.10
62725;BME280;49026;52.600;4.694;2022-12-18T06:18:29;102760.50;;;-6.00;97.00
62725;BME280;49026;52.600;4.694;2022-12-18T06:20:56;102755.22;;;-6.03;97.54
62725;BME280;49026;52.600;4.694;2022-12-18T06:23:25;102753.19;;;-6.09;97.04
62725;BME280;49026;52.600;4.694;2022-12-18T06:25:51;102747.88;;;-6.12;96.49
62725;BME280;49026;52.600;4.694;2022-12-18T06:28:16;102747.34;;;-6.21;96.30
62725;BME280;49026;52.600;4.694;2022-12-18T06:30:46;102729.75;;;-6.30;96.50
62725;BME280;49026;52.600;4.694;2022-12-18T06:33:12;102729.31;;;-6.38;96.55
62725;BME280;49026;52.600;4.694;2022-12-18T06:35:37;102719.50;;;-6.45;96.61
62725;BME280;49026;52.600;4.694;2022-12-18T06:38:05;102720.56;;;-6.56;96.54
62725;BME280;49026;52.600;4.694;2022-12-18T06:40:31;102722.13;;;-6.58;96.91
62725;BME280;49026;52.600;4.694;2022-12-18T06:42:57;102707.47;;;-6.61;97.17
62725;BME280;49026;52.600;4.694;2022-12-18T06:45:22;102706.00;;;-6.57;97.31
62725;BME280;49026;52.600;4.694;2022-12-18T06:47:50;102706.00;;;-6.57;97.17
62725;BME280;49026;52.600;4.694;2022-12-18T06:50:16;102708.63;;;-6.56;97.59
62725;BME280;49026;52.600;4.694;2022-12-18T06:52:41;102708.13;;;-6.50;97.90
62725;BME280;49026;52.600;4.694;2022-12-18T06:55:12;102697.88;;;-6.50;97.94
62725;BME280;49026;52.600;4.694;2022-12-18T06:57:37;102702.13;;;-6.50;97.88
62725;BME280;49026;52.600;4.694;2022-12-18T07:00:04;102694.53;;;-6.49;97.87
62725;BME280;49026;52.600;4.694;2022-12-18T07:02:30;102696.47;;;-6.45;97.69
62725;BME280;49026;52.600;4.694;2022-12-18T07:04:55;102693.84;;;-6.46;98.07
62725;BME280;49026;52.600;4.694;2022-12-18T07:07:21;102686.44;;;-6.42;98.42
62725;BME280;49026;52.600;4.694;2022-12-18T07:09:46;102690.00;;;-6.40;98.01
62725;BME280;49026;52.600;4.694;2022-12-18T07:12:16;102695.16;;;-6.38;97.55
62725;BME280;49026;52.600;4.694;2022-12-18T07:14:41;102704.72;;;-6.36;98.05
62725;BME280;49026;52.600;4.694;2022-12-18T07:17:09;102705.69;;;-6.34;98.37
62725;BME280;49026;52.600;4.694;2022-12-18T07:19:36;102699.78;;;-6.32;97.70
62725;BME280;49026;52.600;4.694;2022-12-18T07:22:02;102695.53;;;-6.32;98.00
62725;BME280;49026;52.600;4.694;2022-12-18T07:24:27;102692.47;;;-6.26;97.53
62725;BME280;49026;52.600;4.694;2022-12-18T07:26:53;102670.41;;;-6.24;97.95
62725;BME280;49026;52.600;4.694;2022-12-18T07:29:18;102672.88;;;-6.26;97.49
62725;BME280;49026;52.600;4.694;2022-12-18T07:31:46;102666.06;;;-6.25;98.07
62725;BME280;49026;52.600;4.694;2022-12-18T07:34:12;102654.16;;;-6.25;97.99
62725;BME280;49026;52.600;4.694;2022-12-18T07:36:41;102641.91;;;-6.30;97.42
62725;BME280;49026;52.600;4.694;2022-12-18T07:39:10;102634.03;;;-6.34;97.96
62725;BME280;49026;52.600;4.694;2022-12-18T07:41:36;102629.88;;;-6.31;97.37
62725;BME280;49026;52.600;4.694;2022-12-18T07:44:03;102637.41;;;-6.35;97.69
62725;BME280;49026;52.600;4.694;2022-12-18T07:46:29;102637.56;;;-6.31;97.93
62725;BME280;49026;52.600;4.694;2022-12-18T07:48:54;102634.22;;;-6.30;97.66
62725;BME280;49026;52.600;4.694;2022-12-18T07:51:19;102627.88;;;-6.22;98.13
62725;BME280;49026;52.600;4.694;2022-12-18T07:53:45;102629.75;;;-6.20;97.31
62725;BME280;49026;52.600;4.694;2022-12-18T07:56:11;102629.78;;;-6.18;97.11
62725;BME280;49026;52.600;4.694;2022-12-18T07:58:37;102641.81;;;-6.17;96.82
62725;BME280;49026;52.600;4.694;2022-12-18T08:01:09;102642.69;;;-6.17;96.19
62725;BME280;49026;52.600;4.694;2022-12-18T08:03:35;102651.59;;;-6.10;95.82
62725;BME280;49026;52.600;4.694;2022-12-18T08:06:05;102647.78;;;-6.02;94.99
62725;BME280;49026;52.600;4.694;2022-12-18T08:08:32;102647.75;;;-5.87;94.84
62725;BME280;49026;52.600;4.694;2022-12-18T08:10:58;102654.81;;;-5.83;94.00
62725;BME280;49026;52.600;4.694;2022-12-18T08:13:24;102662.06;;;-5.90;92.29
62725;BME280;49026;52.600;4.694;2022-12-18T08:16:00;102662.78;;;-5.93;91.69
62725;BME280;49026;52.600;4.694;2022-12-18T08:18:25;102672.03;;;-5.95;91.71
62725;BME280;49026;52.600;4.694;2022-12-18T08:20:51;102679.19;;;-5.89;91.61
62725;BME280;49026;52.600;4.694;2022-12-18T08:23:16;102676.00;;;-5.85;92.09
62725;BME280;49026;52.600;4.694;2022-12-18T08:25:43;102664.97;;;-5.84;91.86
62725;BME280;49026;52.600;4.694;2022-12-18T08:28:09;102665.16;;;-5.81;91.77
62725;BME280;49026;52.600;4.694;2022-12-18T08:30:37;102666.19;;;-5.78;91.82
62725;BME280;49026;52.600;4.694;2022-12-18T08:33:03;102663.09;;;-5.72;91.91
62725;BME280;49026;52.600;4.694;2022-12-18T08:35:28;102665.91;;;-5.67;91.73
62725;BME280;49026;52.600;4.694;2022-12-18T08:37:53;102656.03;;;-5.61;91.49
62725;BME280;49026;52.600;4.694;2022-12-18T08:40:19;102642.81;;;-5.52;90.59
62725;BME280;49026;52.600;4.694;2022-12-18T08:42:44;102639.00;;;-5.44;90.18
62725;BME280;49026;52.600;4.694;2022-12-18T08:45:28;102632.28;;;-5.42;89.47
62725;BME280;49026;52.600;4.694;2022-12-18T08:47:53;102646.56;;;-5.31;89.35
62725;BME280;49026;52.600;4.694;2022-12-18T08:50:19;102652.66;;;-5.12;89.91
62725;BME280;49026;52.600;4.694;2022-12-18T08:52:45;102648.34;;;-4.97;89.04
62725;BME280;49026;52.600;4.694;2022-12-18T08:55:13;102655.09;;;-4.82;88.42
62725;BME280;49026;52.600;4.694;2022-12-18T08:57:38;102657.25;;;-4.74;87.93
62725;BME280;49026;52.600;4.694;2022-12-18T09:00:06;102634.22;;;-4.72;87.06
62725;BME280;49026;52.600;4.694;2022-12-18T09:02:32;102633.91;;;-4.78;86.77
62725;BME280;49026;52.600;4.694;2022-12-18T09:04:58;102624.94;;;-4.87;86.87
62725;BME280;49026;52.600;4.694;2022-12-18T09:07:23;102637.25;;;-4.79;87.06
62725;BME280;49026;52.600;4.694;2022-12-18T09:09:48;102645.03;;;-4.78;87.27
62725;BME280;49026;52.600;4.694;2022-12-18T09:12:13;102657.25;;;-4.74;87.05
62725;BME280;49026;52.600;4.694;2022-12-18T09:14:41;102649.78;;;-4.69;86.92
62725;BME280;49026;52.600;4.694;2022-12-18T09:17:07;102629.34;;;-4.68;86.80
62725;BME280;49026;52.600;4.694;2022-12-18T09:19:32;102626.78;;;-4.68;86.64
62725;BME280;49026;52.600;4.694;2022-12-18T09:21:57;102613.88;;;-4.69;86.79
62725;BME280;49026;52.600;4.694;2022-12-18T09:24:22;102626.19;;;-4.62;86.71
62725;BME280;49026;52.600;4.694;2022-12-18T09:26:48;102625.78;;;-4.53;86.67
62725;BME280;49026;52.600;4.694;2022-12-18T09:29:15;102627.78;;;-4.48;86.70
62725;BME280;49026;52.600;4.694;2022-12-18T09:31:41;102621.13;;;-4.44;86.54
62725;BME280;49026;52.600;4.694;2022-12-18T09:34:06;102615.25;;;-4.41;86.70
62725;BME280;49026;52.600;4.694;2022-12-18T09:36:32;102597.94;;;-4.45;86.50
62725;BME280;49026;52.600;4.694;2022-12-18T09:38:57;102598.97;;;-4.42;86.70
62725;BME280;49026;52.600;4.694;2022-12-18T09:44:21;102594.28;;;-4.33;87.09
62725;BME280;49026;52.600;4.694;2022-12-18T09:49:22;102576.38;;;-4.31;86.46
62725;BME280;49026;52.600;4.694;2022-12-18T09:54:43;102585.06;;;-4.29;86.08
62725;BME280;49026;52.600;4.694;2022-12-18T09:57:15;102586.25;;;-4.22;86.26
62725;BME280;49026;52.600;4.694;2022-12-18T09:59:45;102593.50;;;-4.14;86.14
62725;BME280;49026;52.600;4.694;2022-12-18T10:02:19;102592.69;;;-4.13;85.38
62725;BME280;49026;52.600;4.694;2022-12-18T10:04:56;102597.03;;;-4.12;86.06
62725;BME280;49026;52.600;4.694;2022-12-18T10:07:39;102593.22;;;-4.02;86.44
62725;BME280;49026;52.600;4.694;2022-12-18T10:12:49;102596.50;;;-3.86;85.12
62725;BME280;49026;52.600;4.694;2022-12-18T10:15:40;102587.53;;;-3.77;85.40
62725;BME280;49026;52.600;4.694;2022-12-18T10:20:58;102589.25;;;-3.58;85.34
62725;BME280;49026;52.600;4.694;2022-12-18T10:23:32;102588.53;;;-3.55;84.94
62725;BME280;49026;52.600;4.694;2022-12-18T10:26:07;102594.09;;;-3.46;85.16
62725;BME280;49026;52.600;4.694;2022-12-18T10:28:36;102580.44;;;-3.45;84.26
62725;BME280;49026;52.600;4.694;2022-12-18T10:31:14;102590.88;;;-3.42;83.89
62725;BME280;49026;52.600;4.694;2022-12-18T10:33:44;102593.66;;;-3.37;84.21
62725;BME280;49026;52.600;4.694;2022-12-18T10:36:09;102584.38;;;-3.33;83.14
62725;BME280;49026;52.600;4.694;2022-12-18T10:38:35;102586.41;;;-3.26;83.32
62725;BME280;49026;52.600;4.694;2022-12-18T10:41:26;102566.84;;;-3.23;83.48
62725;BME280;49026;52.600;4.694;2022-12-18T10:44:11;102571.25;;;-3.20;83.37
62725;BME280;49026;52.600;4.694;2022-12-18T10:46:41;102556.56;;;-3.23;82.61
62725;BME280;49026;52.600;4.694;2022-12-18T10:49:22;102550.41;;;-3.26;82.73
62725;BME280;49026;52.600;4.694;2022-12-18T10:51:48;102543.91;;;-3.18;83.32
62725;BME280;49026;52.600;4.694;2022-12-18T10:54:21;102548.50;;;-3.11;83.74
62725;BME280;49026;52.600;4.694;2022-12-18T10:56:46;102541.69;;;-3.10;82.82
62725;BME280;49026;52.600;4.694;2022-12-18T10:59:16;102540.06;;;-3.08;82.92
62725;BME280;49026;52.600;4.694;2022-12-18T11:01:59;102533.47;;;-3.02;83.01
62725;BME280;49026;52.600;4.694;2022-12-18T11:04:28;102527.63;;;-2.98;82.86
62725;BME280;49026;52.600;4.694;2022-12-18T11:07:01;102527.78;;;-2.94;82.73
62725;BME280;49026;52.600;4.694;2022-12-18T11:09:33;102526.13;;;-2.92;82.91
62725;BME280;49026;52.600;4.694;2022-12-18T11:12:00;102525.47;;;-2.88;82.74
62725;BME280;49026;52.600;4.694;2022-12-18T11:14:29;102535.06;;;-2.84;82.65
62725;BME280;49026;52.600;4.694;2022-12-18T11:16:58;102542.13;;;-2.80;82.49
62725;BME280;49026;52.600;4.694;2022-12-18T11:19:37;102538.09;;;-2.73;82.90
62725;BME280;49026;52.600;4.694;2022-12-18T11:22:41;102532.19;;;-2.71;81.20
62725;BME280;49026;52.600;4.694;2022-12-18T11:25:18;102529.94;;;-2.63;82.03
62725;BME280;49026;52.600;4.694;2022-12-18T11:28:26;102526.06;;;-2.53;82.29
62725;BME280;49026;52.600;4.694;2022-12-18T11:33:54;102503.75;;;-2.53;81.82
62725;BME280;49026;52.600;4.694;2022-12-18T11:36:23;102498.81;;;-2.48;81.69
62725;BME280;49026;52.600;4.694;2022-12-18T11:38:52;102506.66;;;-2.45;81.39
62725;BME280;49026;52.600;4.694;2022-12-18T11:41:29;102500.66;;;-2.44;81.67
62725;BME280;49026;52.600;4.694;2022-12-18T11:44:21;102499.94;;;-2.42;81.05
62725;BME280;49026;52.600;4.694;2022-12-18T11:46:55;102488.63;;;-2.45;80.90
62725;BME280;49026;52.600;4.694;2022-12-18T11:49:28;102478.53;;;-2.40;81.34
62725;BME280;49026;52.600;4.694;2022-12-18T11:52:23;102472.41;;;-2.43;81.41
62725;BME280;49026;52.600;4.694;2022-12-18T11:54:52;102467.31;;;-2.41;81.06
62725;BME280;49026;52.600;4.694;2022-12-18T12:08:22;102440.19;;;-2.33;81.76
62725;BME280;49026;52.600;4.694;2022-12-18T12:11:16;102444.97;;;-2.19;82.64
62725;BME280;49026;52.600;4.694;2022-12-18T12:16:49;102441.25;;;-2.05;81.73
62725;BME280;49026;52.600;4.694;2022-12-18T12:22:03;102444.03;;;-1.99;81.11
62725;BME280;49026;52.600;4.694;2022-12-18T12:24:52;102439.78;;;-1.98;80.48
62725;BME280;49026;52.600;4.694;2022-12-18T12:27:44;102437.13;;;-2.00;81.11
62725;BME280;49026;52.600;4.694;2022-12-18T12:33:46;102423.53;;;-1.96;80.53
62725;BME280;49026;52.600;4.694;2022-12-18T12:39:33;102406.97;;;-2.02;80.09
62725;BME280;49026;52.600;4.694;2022-12-18T12:42:01;102405.72;;;-2.14;80.35
62725;BME280;49026;52.600;4.694;2022-12-18T12:44:49;102406.78;;;-2.09;80.99
62725;BME280;49026;52.600;4.694;2022-12-18T12:47:21;102395.69;;;-2.06;81.06
62725;BME280;49026;52.600;4.694;2022-12-18T12:49:49;102375.91;;;-2.07;80.97
62725;BME280;49026;52.600;4.694;2022-12-18T12:54:57;102378.00;;;-1.97;80.99
62725;BME280;49026;52.600;4.694;2022-12-18T12:57:31;102373.00;;;-1.92;81.08
62725;BME280;49026;52.600;4.694;2022-12-18T13:00:04;102359.06;;;-1.97;80.47
62725;BME280;49026;52.600;4.694;2022-12-18T13:02:46;102354.59;;;-2.03;80.12
62725;BME280;49026;52.600;4.694;2022-12-18T13:05:21;102351.34;;;-1.97;81.05
62725;BME280;49026;52.600;4.694;2022-12-18T13:07:57;102362.75;;;-1.91;81.59
62725;BME280;49026;52.600;4.694;2022-12-18T13:13:17;102362.03;;;-1.87;80.99
62725;BME280;49026;52.600;4.694;2022-12-18T13:15:49;102356.72;;;-1.91;80.83
62725;BME280;49026;52.600;4.694;2022-12-18T13:18:28;102351.69;;;-1.88;80.98
62725;BME280;49026;52.600;4.694;2022-12-18T13:23:26;102333.41;;;-1.94;80.11
62725;BME280;49026;52.600;4.694;2022-12-18T13:30:47;102316.38;;;-1.91;81.15
62725;BME280;49026;52.600;4.694;2022-12-18T13:38:38;102288.81;;;-1.93;80.75
62725;BME280;49026;52.600;4.694;2022-12-18T13:43:47;102281.41;;;-2.08;80.89
62725;BME280;49026;52.600;4.694;2022-12-18T13:46:44;102274.63;;;-2.06;81.35
62725;BME280;49026;52.600;4.694;2022-12-18T13:51:42;102256.69;;;-2.03;81.32
62725;BME280;49026;52.600;4.694;2022-12-18T13:54:35;102269.34;;;-2.09;81.50
62725;BME280;49026;52.600;4.694;2022-12-18T13:57:03;102274.78;;;-2.01;81.46
62725;BME280;49026;52.600;4.694;2022-12-18T14:02:13;102259.44;;;-1.98;81.11
62725;BME280;49026;52.600;4.694;2022-12-18T14:04:38;102247.66;;;-1.92;80.77
62725;BME280;49026;52.600;4.694;2022-12-18T14:07:11;102258.75;;;-1.93;80.59
62725;BME280;49026;52.600;4.694;2022-12-18T14:09:42;102248.22;;;-1.99;80.82
62725;BME280;49026;52.600;4.694;2022-12-18T14:12:18;102255.16;;;-1.98;80.78
62725;BME280;49026;52.600;4.694;2022-12-18T14:15:06;102241.66;;;-1.91;80.90
62725;BME280;49026;52.600;4.694;2022-12-18T14:17:42;102245.06;;;-1.92;80.54
62725;BME280;49026;52.600;4.694;2022-12-18T14:20:13;102252.00;;;-1.89;80.65
62725;BME280;49026;52.600;4.694;2022-12-18T14:22:46;102250.41;;;-1.86;80.71
62725;BME280;49026;52.600;4.694;2022-12-18T14:27:53;102239.97;;;-1.90;80.39
62725;BME280;49026;52.600;4.694;2022-12-18T14:30:32;102240.09;;;-1.86;80.75
62725;BME280;49026;52.600;4.694;2022-12-18T14:33:21;102223.78;;;-1.86;80.82
62725;BME280;49026;52.600;4.694;2022-12-18T14:36:00;102217.75;;;-1.87;80.39
62725;BME280;49026;52.600;4.694;2022-12-18T14:38:32;102216.88;;;-1.87;80.38
62725;BME280;49026;52.600;4.694;2022-12-18T14:41:06;102205.84;;;-1.83;80.94
62725;BME280;49026;52.600;4.694;2022-12-18T14:43:37;102198.97;;;-1.82;79.89
62725;BME280;49026;52.600;4.694;2022-12-18T14:46:05;102181.88;;;-1.80;80.07